Time;durP1;ratioP1;P1;durP2;ratioP2;P2;SDS_P1;SDS_P2;PMS_P1;PMS_P2;Temp;Humidity;BMP_temperature;BMP_pressure;BME280_temperature;BME280_humidity;BME280_pressure;Samples;Min_cycle;Max_cycle;Signal;HPM_P1;HPM_P2
2023/09/09 00:01:17;;;;;;;6.63;5.40;;;27.80;77.60;;;;;;5074199;28;20031;-81
2023/09/09 00:03:43;;;;;;;5.32;3.85;;;27.80;77.60;;;;;;5073971;28;20028;-81
2023/09/09 00:06:12;;;;;;;6.03;5.10;;;27.80;77.80;;;;;;5073858;28;20035;-82
2023/09/09 00:08:40;;;;;;;6.47;4.40;;;27.70;77.70;;;;;;5074028;28;20039;-81
2023/09/09 00:11:07;;;;;;;4.50;4.10;;;27.70;77.80;;;;;;5055881;28;20177;-81
2023/09/09 00:13:32;;;;;;;4.93;4.38;;;27.70;77.70;;;;;;5056035;28;20112;-81
2023/09/09 00:15:58;;;;;;;4.28;3.88;;;27.80;77.80;;;;;;5072335;28;20128;-81
2023/09/09 00:18:24;;;;;;;5.07;4.57;;;27.80;77.90;;;;;;5055589;28;20032;-81
2023/09/09 00:20:49;;;;;;;6.03;5.43;;;27.80;77.90;;;;;;5072973;28;20028;-81
2023/09/09 00:23:15;;;;;;;6.00;5.40;;;27.70;77.80;;;;;;5073261;28;20056;-81
2023/09/09 00:25:42;;;;;;;7.32;5.90;;;27.70;77.80;;;;;;5073643;28;20060;-80
2023/09/09 00:28:09;;;;;;;6.28;5.05;;;27.70;77.90;;;;;;5073345;28;20064;-81
2023/09/09 00:30:35;;;;;;;4.40;3.78;;;27.60;78.10;;;;;;5073616;28;20024;-81
2023/09/09 00:33:01;;;;;;;5.90;5.30;;;27.50;78.10;;;;;;5073058;28;20031;-80
2023/09/09 00:35:27;;;;;;;7.40;4.60;;;27.60;78.20;;;;;;5073248;28;20029;-81
2023/09/09 00:37:54;;;;;;;4.75;4.35;;;27.40;78.30;;;;;;5055178;28;20111;-80
2023/09/09 00:40:19;;;;;;;4.43;4.03;;;27.40;78.40;;;;;;5055106;28;20055;-81
2023/09/09 00:42:45;;;;;;;4.45;4.03;;;27.40;78.50;;;;;;5072897;28;20033;-81
2023/09/09 00:45:11;;;;;;;5.10;4.63;;;27.40;78.50;;;;;;5072779;28;20470;-81
2023/09/09 00:47:38;;;;;;;7.60;4.78;;;27.40;78.50;;;;;;5073517;28;20078;-80
2023/09/09 00:50:08;;;;;;;5.15;4.65;;;27.40;78.40;;;;;;5073132;28;20111;-81
2023/09/09 00:52:36;;;;;;;5.15;4.40;;;27.40;78.50;;;;;;5073556;28;20059;-81
2023/09/09 00:55:02;;;;;;;4.70;4.30;;;27.40;78.50;;;;;;5058634;28;20354;-81
2023/09/09 00:57:27;;;;;;;4.75;4.35;;;27.40;78.70;;;;;;5077044;28;20051;-81
2023/09/09 00:59:53;;;;;;;4.85;4.35;;;27.40;78.80;;;;;;5059005;28;20392;-80
2023/09/09 01:02:19;;;;;;;6.43;4.68;;;27.40;78.90;;;;;;5077343;28;20441;-80
2023/09/09 01:04:45;;;;;;;4.47;4.07;;;27.30;78.90;;;;;;5077004;28;20016;-81
2023/09/09 01:07:11;;;;;;;4.82;4.43;;;27.30;79.10;;;;;;5077352;28;20078;-80
2023/09/09 01:09:37;;;;;;;4.50;4.13;;;27.30;79.10;;;;;;5076593;28;20481;-81
2023/09/09 01:12:03;;;;;;;5.13;4.30;;;27.30;79.10;;;;;;5076606;28;20032;-81
2023/09/09 01:14:29;;;;;;;5.20;4.63;;;27.30;79.10;;;;;;5059273;28;20041;-82
2023/09/09 01:16:56;;;;;;;4.07;3.78;;;27.30;79.10;;;;;;5076396;28;20439;-81
2023/09/09 01:19:25;;;;;;;4.78;4.38;;;27.30;79.20;;;;;;5076959;28;20033;-81
2023/09/09 01:21:53;;;;;;;9.40;4.82;;;27.30;79.20;;;;;;5076679;28;20035;-81
2023/09/09 01:24:20;;;;;;;6.38;5.00;;;27.30;79.10;;;;;;5077099;28;20467;-81
2023/09/09 01:26:46;;;;;;;5.85;5.25;;;27.30;79.10;;;;;;5076637;28;20052;-81
2023/09/09 01:29:12;;;;;;;4.28;3.80;;;27.20;79.10;;;;;;5076537;28;20106;-81
2023/09/09 01:31:38;;;;;;;6.20;5.65;;;27.20;79.30;;;;;;5076475;28;20025;-82
2023/09/09 01:34:04;;;;;;;5.50;5.00;;;27.20;79.20;;;;;;5059033;28;20039;-81
2023/09/09 01:36:30;;;;;;;6.85;6.15;;;27.20;79.30;;;;;;5075976;28;20404;-81
2023/09/09 01:38:55;;;;;;;7.97;7.18;;;27.20;79.30;;;;;;5076553;28;20043;-82
2023/09/09 01:41:21;;;;;;;8.45;7.55;;;27.00;79.40;;;;;;5076573;28;20029;-82
2023/09/09 01:43:46;;;;;;;6.03;5.43;;;26.90;79.60;;;;;;5076228;28;20029;-81
2023/09/09 01:46:12;;;;;;;5.13;4.63;;;26.70;79.90;;;;;;5076599;28;20039;-81
2023/09/09 01:48:38;;;;;;;4.80;4.40;;;26.70;80.10;;;;;;5076183;28;20056;-82
2023/09/09 01:51:03;;;;;;;5.10;4.70;;;26.80;80.20;;;;;;5076395;28;20073;-82
2023/09/09 01:53:29;;;;;;;6.38;4.72;;;26.80;80.10;;;;;;5074878;28;20372;-82
2023/09/09 01:55:58;;;;;;;5.15;4.65;;;26.90;80.20;;;;;;5075830;28;20029;-82
2023/09/09 01:58:24;;;;;;;4.15;3.85;;;26.90;80.10;;;;;;5076173;28;20453;-81
2023/09/09 02:00:49;;;;;;;4.80;4.40;;;26.90;80.00;;;;;;5075772;28;20037;-82
2023/09/09 02:03:15;;;;;;;5.60;4.38;;;26.90;80.00;;;;;;5057710;28;20036;-81
2023/09/09 02:05:41;;;;;;;6.38;4.78;;;27.00;80.00;;;;;;5075743;28;20021;-81
2023/09/09 02:08:06;;;;;;;9.20;5.15;;;27.00;79.90;;;;;;5075499;28;20048;-81
2023/09/09 02:10:32;;;;;;;8.10;6.35;;;27.00;79.90;;;;;;5074656;28;20101;-81
2023/09/09 02:12:58;;;;;;;6.20;5.40;;;27.00;79.80;;;;;;5075478;28;20032;-81
2023/09/09 02:15:23;;;;;;;6.35;5.28;;;26.90;79.90;;;;;;5076049;28;20025;-81
2023/09/09 02:17:49;;;;;;;4.95;4.47;;;26.90;80.00;;;;;;5076004;28;20033;-81
2023/09/09 02:20:15;;;;;;;8.07;5.15;;;26.90;80.10;;;;;;5074429;28;20036;-81
2023/09/09 02:22:40;;;;;;;6.85;6.18;;;26.90;80.00;;;;;;5074397;28;20426;-81
2023/09/09 02:25:08;;;;;;;5.05;4.63;;;26.90;80.00;;;;;;5074399;28;20033;-81
2023/09/09 02:27:34;;;;;;;5.25;4.78;;;26.90;80.00;;;;;;5075463;28;20032;-82
2023/09/09 02:30:00;;;;;;;5.93;4.60;;;26.90;80.00;;;;;;5075204;28;20374;-81
2023/09/09 02:32:26;;;;;;;5.55;4.85;;;26.90;80.10;;;;;;5057425;28;20032;-82
2023/09/09 02:34:52;;;;;;;8.45;5.40;;;26.90;80.10;;;;;;5057442;28;20380;-82
2023/09/09 02:37:20;;;;;;;7.82;6.93;;;26.90;80.10;;;;;;5075604;28;20078;-82
2023/09/09 02:39:50;;;;;;;4.72;4.10;;;26.90;80.10;;;;;;5075496;28;20039;-82
2023/09/09 02:42:20;;;;;;;4.32;4.00;;;26.80;80.00;;;;;;5075233;28;20120;-82
2023/09/09 02:44:49;;;;;;;5.60;5.10;;;26.80;80.20;;;;;;5075479;28;20052;-82
2023/09/09 02:47:15;;;;;;;7.00;6.05;;;26.90;80.20;;;;;;5074842;28;20032;-82
2023/09/09 02:49:42;;;;;;;6.00;5.50;;;26.90;80.30;;;;;;5075269;28;20033;-81
2023/09/09 02:52:08;;;;;;;6.35;5.65;;;26.90;80.20;;;;;;5057325;28;20060;-81
2023/09/09 02:54:34;;;;;;;6.20;5.60;;;26.80;80.20;;;;;;5074007;28;20478;-81
2023/09/09 02:57:00;;;;;;;5.30;4.80;;;26.80;80.30;;;;;;5074863;28;20103;-81
2023/09/09 02:59:26;;;;;;;5.03;4.63;;;26.80;80.30;;;;;;5073638;28;20044;-81
2023/09/09 03:01:51;;;;;;;5.82;5.30;;;26.80;80.30;;;;;;5074768;28;20058;-81
2023/09/09 03:04:19;;;;;;;6.10;5.50;;;26.80;80.40;;;;;;5073507;28;20342;-81
2023/09/09 03:06:45;;;;;;;6.22;5.72;;;26.80;80.40;;;;;;5074667;28;20078;-81
2023/09/09 03:09:13;;;;;;;4.65;4.25;;;26.80;80.40;;;;;;5074561;28;20085;-82
2023/09/09 03:11:39;;;;;;;6.63;6.03;;;26.80;80.50;;;;;;5056617;28;20465;-81
2023/09/09 03:14:04;;;;;;;5.10;4.57;;;26.70;80.50;;;;;;5073589;28;20028;-81
2023/09/09 03:16:30;;;;;;;5.90;5.30;;;26.70;80.60;;;;;;5039631;28;20075;-81
2023/09/09 03:18:56;;;;;;;6.05;5.45;;;26.70;80.60;;;;;;5074486;28;20043;-81
2023/09/09 03:21:21;;;;;;;5.78;5.22;;;26.70;80.70;;;;;;5056455;28;20111;-82
2023/09/09 03:23:47;;;;;;;9.48;7.40;;;26.60;80.80;;;;;;5074367;28;20494;-81
2023/09/09 03:26:18;;;;;;;6.32;5.60;;;26.60;80.80;;;;;;5074655;28;20025;-81
2023/09/09 03:28:45;;;;;;;7.07;6.35;;;26.60;80.90;;;;;;5057004;28;20215;-81
2023/09/09 03:31:11;;;;;;;5.22;4.72;;;26.60;80.90;;;;;;5074204;28;20032;-81
2023/09/09 03:33:37;;;;;;;6.70;6.00;;;26.60;81.00;;;;;;5074427;28;20029;-81
2023/09/09 03:36:03;;;;;;;6.07;4.90;;;26.50;80.90;;;;;;5074058;28;20127;-79
2023/09/09 03:38:29;;;;;;;6.68;5.88;;;26.50;81.00;;;;;;5074588;28;20496;-81
2023/09/09 03:40:55;;;;;;;5.38;4.93;;;26.50;81.00;;;;;;5074296;28;20028;-81
2023/09/09 03:43:20;;;;;;;6.38;5.78;;;26.50;81.10;;;;;;5073052;28;20441;-81
2023/09/09 03:45:46;;;;;;;6.30;5.70;;;26.50;81.20;;;;;;5074462;28;20033;-81
2023/09/09 03:48:12;;;;;;;6.07;5.53;;;26.50;81.30;;;;;;5072738;28;20094;-81
2023/09/09 03:50:37;;;;;;;6.97;5.72;;;26.50;81.30;;;;;;5072455;28;20036;-81
2023/09/09 03:53:03;;;;;;;4.63;4.22;;;26.40;81.40;;;;;;5073863;28;20032;-79
2023/09/09 03:55:29;;;;;;;6.30;5.70;;;26.40;81.50;;;;;;5055827;28;20033;-81
2023/09/09 03:57:55;;;;;;;5.28;4.55;;;26.40;81.50;;;;;;5073683;28;20028;-81
2023/09/09 04:00:21;;;;;;;5.45;4.95;;;26.40;81.60;;;;;;5073334;28;20044;-81
2023/09/09 04:02:46;;;;;;;5.97;5.47;;;26.40;81.60;;;;;;5055676;28;20047;-81
2023/09/09 04:05:12;;;;;;;6.70;5.93;;;26.40;81.60;;;;;;5073945;28;20037;-81
2023/09/09 04:07:40;;;;;;;6.93;5.57;;;26.40;81.60;;;;;;5073976;28;20033;-81
2023/09/09 04:10:06;;;;;;;8.38;7.57;;;26.40;81.70;;;;;;5055614;28;20043;-80
2023/09/09 04:12:32;;;;;;;6.80;6.20;;;26.40;81.60;;;;;;5055605;28;20032;-81
2023/09/09 04:14:58;;;;;;;7.43;6.57;;;26.30;81.70;;;;;;5073760;28;20035;-81
2023/09/09 04:17:23;;;;;;;7.80;6.25;;;26.30;81.70;;;;;;5073779;28;20380;-81
2023/09/09 04:19:49;;;;;;;7.03;6.32;;;26.30;81.80;;;;;;5072637;28;20480;-81
2023/09/09 04:22:14;;;;;;;8.13;7.30;;;26.30;81.90;;;;;;5073700;28;20372;-80
2023/09/09 04:24:40;;;;;;;6.88;6.18;;;26.20;81.90;;;;;;5073326;28;20078;-80
2023/09/09 04:27:06;;;;;;;8.13;7.32;;;26.30;82.10;;;;;;5074053;28;20032;-81
2023/09/09 04:29:31;;;;;;;5.82;5.20;;;26.20;82.10;;;;;;5073563;28;20060;-80
2023/09/09 04:31:58;;;;;;;7.70;6.97;;;26.20;82.20;;;;;;5073573;28;20056;-81
2023/09/09 04:34:23;;;;;;;7.47;6.78;;;26.10;82.20;;;;;;5072105;28;20029;-80
2023/09/09 04:36:49;;;;;;;6.07;5.57;;;26.10;83.00;;;;;;5073324;28;20063;-80
2023/09/09 04:39:15;;;;;;;13.20;10.40;;;26.10;82.60;;;;;;5072729;28;20474;-81
2023/09/09 04:41:44;;;;;;;7.40;6.70;;;26.10;82.50;;;;;;5072488;28;20032;-81
2023/09/09 04:44:10;;;;;;;7.78;6.97;;;26.00;82.60;;;;;;5073028;28;20040;-79
2023/09/09 04:46:35;;;;;;;7.13;6.43;;;26.00;83.50;;;;;;5072251;28;20028;-83
2023/09/09 04:49:03;;;;;;;9.13;8.05;;;26.00;82.90;;;;;;5072544;28;20112;-81
2023/09/09 04:51:29;;;;;;;9.32;7.88;;;26.00;83.00;;;;;;5072438;28;20375;-81
2023/09/09 04:53:55;;;;;;;10.55;9.27;;;26.00;83.00;;;;;;5072867;28;20020;-81
2023/09/09 04:56:20;;;;;;;10.25;9.25;;;26.00;82.90;;;;;;5072395;28;20074;-81
2023/09/09 04:58:46;;;;;;;9.05;8.23;;;26.00;83.00;;;;;;5072553;28;20389;-81
2023/09/09 05:01:12;;;;;;;6.93;6.20;;;26.00;83.10;;;;;;5072101;28;20512;-81
2023/09/09 05:03:37;;;;;;;9.50;8.57;;;26.00;83.10;;;;;;5054338;28;20036;-82
2023/09/09 05:06:03;;;;;;;15.88;14.13;;;26.00;83.10;;;;;;5072318;28;20033;-81
2023/09/09 05:08:28;;;;;;;15.32;12.52;;;26.00;83.10;;;;;;5054744;28;20028;-81
2023/09/09 05:10:54;;;;;;;18.42;16.60;;;26.00;83.20;;;;;;5070990;28;20045;-81
2023/09/09 05:13:20;;;;;;;20.23;18.13;;;25.90;83.10;;;;;;5071878;28;20063;-81
2023/09/09 05:15:46;;;;;;;12.52;11.23;;;25.90;83.10;;;;;;5070899;28;20033;-82
2023/09/09 05:18:12;;;;;;;18.73;16.85;;;25.80;83.40;;;;;;5054090;28;20094;-81
2023/09/09 05:20:38;;;;;;;48.50;20.85;;;25.70;83.50;;;;;;5054531;28;20408;-81
2023/09/09 05:23:03;;;;;;;15.68;13.65;;;25.70;83.70;;;;;;5072081;28;20040;-82
2023/09/09 05:25:29;;;;;;;21.55;19.40;;;25.60;83.90;;;;;;5054090;28;20028;-82
2023/09/09 05:27:55;;;;;;;14.55;13.27;;;25.60;84.10;;;;;;5071751;28;20039;-82
2023/09/09 05:30:21;;;;;;;14.68;13.27;;;25.60;84.40;;;;;;5054006;28;20089;-81
2023/09/09 05:32:46;;;;;;;15.18;13.63;;;25.50;84.40;;;;;;5071702;28;20123;-82
2023/09/09 05:35:12;;;;;;;14.15;12.85;;;25.40;84.50;;;;;;5054293;28;20039;-82
2023/09/09 05:37:39;;;;;;;9.05;8.23;;;25.40;84.70;;;;;;5027757;28;1281944;-82
2023/09/09 05:40:05;;;;;;;24.77;12.70;;;25.30;84.90;;;;;;5056694;28;20123;-81
2023/09/09 05:42:31;;;;;;;10.43;9.52;;;25.30;85.00;;;;;;5058539;28;20039;-82
2023/09/09 05:44:57;;;;;;;9.90;9.02;;;25.30;85.00;;;;;;5076766;28;20029;-81
2023/09/09 05:47:23;;;;;;;8.05;7.35;;;25.30;85.00;;;;;;5076264;28;20032;-81
2023/09/09 05:49:48;;;;;;;12.25;11.13;;;25.30;85.10;;;;;;5058794;28;20040;-81
2023/09/09 05:52:14;;;;;;;8.85;7.97;;;25.30;85.00;;;;;;5075401;28;20162;-81
2023/09/09 05:54:40;;;;;;;8.07;7.38;;;25.40;85.00;;;;;;5076345;28;20039;-81
2023/09/09 05:57:05;;;;;;;16.92;11.57;;;25.40;85.10;;;;;;5076192;28;20377;-81
2023/09/09 05:59:32;;;;;;;17.10;9.93;;;25.40;85.00;;;;;;5076072;28;20048;-81
2023/09/09 06:01:57;;;;;;;13.07;10.63;;;25.40;84.80;;;;;;5076070;28;20051;-81
2023/09/09 06:04:23;;;;;;;9.35;8.55;;;25.40;84.70;;;;;;5075995;28;20398;-81
2023/09/09 06:06:49;;;;;;;11.68;10.68;;;25.30;84.80;;;;;;5075737;28;20040;-81
2023/09/09 06:09:15;;;;;;;19.17;13.52;;;25.30;84.90;;;;;;5075854;28;20377;-81
2023/09/09 06:11:40;;;;;;;12.43;11.25;;;25.20;85.20;;;;;;5057901;28;20033;-81
2023/09/09 06:14:06;;;;;;;13.02;11.93;;;25.10;85.30;;;;;;5076114;28;20449;-81
2023/09/09 06:16:32;;;;;;;20.67;11.80;;;25.10;85.10;;;;;;5058334;28;20036;-81
2023/09/09 06:18:58;;;;;;;12.40;11.38;;;25.10;85.00;;;;;;5075680;28;20068;-81
2023/09/09 06:21:25;;;;;;;8.30;7.60;;;25.10;85.10;;;;;;5075939;28;20056;-81
2023/09/09 06:23:50;;;;;;;11.98;10.77;;;25.10;85.20;;;;;;5075902;28;20040;-81
2023/09/09 06:26:16;;;;;;;6.88;6.32;;;25.10;85.40;;;;;;5075517;28;20029;-81
2023/09/09 06:28:41;;;;;;;12.38;11.35;;;25.10;85.50;;;;;;5076113;28;20437;-81
2023/09/09 06:31:07;;;;;;;14.40;12.95;;;25.10;85.40;;;;;;5075835;28;20453;-82
2023/09/09 06:33:33;;;;;;;13.88;12.57;;;25.10;85.60;;;;;;5075601;28;20093;-80
2023/09/09 06:35:59;;;;;;;15.57;14.13;;;25.10;85.50;;;;;;5075144;28;20024;-82
2023/09/09 06:38:25;;;;;;;14.07;12.57;;;25.10;85.50;;;;;;5075058;28;20485;-83
2023/09/09 06:40:51;;;;;;;21.27;15.77;;;25.10;85.30;;;;;;5075410;28;20392;-83
2023/09/09 06:43:21;;;;;;;17.52;13.15;;;25.10;85.20;;;;;;5075611;28;20032;-82
2023/09/09 06:45:48;;;;;;;13.52;12.43;;;25.00;85.30;;;;;;5057333;28;20028;-82
2023/09/09 06:48:17;;;;;;;16.63;12.93;;;24.80;85.50;;;;;;5075305;28;20040;-81
2023/09/09 06:50:46;;;;;;;10.90;10.00;;;24.80;85.80;;;;;;5074551;28;20060;-82
2023/09/09 06:53:13;;;;;;;12.45;11.35;;;24.80;85.90;;;;;;5075012;28;20051;-82
2023/09/09 06:55:41;;;;;;;10.65;9.75;;;24.80;86.10;;;;;;5075173;28;20029;-82
2023/09/09 06:58:07;;;;;;;13.85;12.60;;;24.90;86.30;;;;;;5075093;28;20024;-83
2023/09/09 07:00:33;;;;;;;16.92;15.32;;;25.00;86.30;;;;;;5074929;28;20037;-82
2023/09/09 07:06:21;;;;;;;14.55;12.35;;;25.00;86.10;;;;;;5075319;28;20040;-83
2023/09/09 07:08:47;;;;;;;13.05;11.75;;;25.00;86.10;;;;;;5074853;28;20041;-82
2023/09/09 07:11:13;;;;;;;11.57;10.38;;;24.90;86.30;;;;;;5074757;28;20561;-82
2023/09/09 07:13:39;;;;;;;21.00;18.80;;;25.00;86.50;;;;;;5074821;28;20028;-82
2023/09/09 07:16:04;;;;;;;11.98;10.13;;;25.00;86.70;;;;;;5056387;28;20033;-82
2023/09/09 07:18:30;;;;;;;17.50;15.40;;;25.00;86.90;;;;;;5056676;28;20109;-83
2023/09/09 07:20:59;;;;;;;25.48;22.05;;;25.00;87.00;;;;;;5073335;28;20032;-82
2023/09/09 07:23:25;;;;;;;24.30;20.90;;;25.10;87.50;;;;;;5074802;28;20078;-81
2023/09/09 07:25:51;;;;;;;26.25;22.33;;;25.00;87.50;;;;;;5075055;28;20040;-82
2023/09/09 07:28:16;;;;;;;34.75;28.17;;;25.10;87.80;;;;;;5073120;28;20036;-82
2023/09/09 07:30:42;;;;;;;28.00;22.92;;;25.00;88.10;;;;;;5074394;28;20039;-82
2023/09/09 07:33:08;;;;;;;49.75;32.80;;;25.00;87.90;;;;;;5074442;28;20025;-82
2023/09/09 07:35:38;;;;;;;35.33;28.98;;;24.90;88.00;;;;;;5074257;28;20461;-82
2023/09/09 07:38:05;;;;;;;36.20;29.45;;;24.90;88.20;;;;;;5074369;28;20136;-83
2023/09/09 07:40:30;;;;;;;41.80;31.20;;;24.80;88.60;;;;;;5074217;28;20024;-82
2023/09/09 07:42:56;;;;;;;38.20;26.80;;;24.60;88.60;;;;;;5073350;28;20090;-82
2023/09/09 07:45:22;;;;;;;46.03;31.17;;;24.60;88.90;;;;;;5074556;28;20035;-82
2023/09/09 07:47:48;;;;;;;41.88;31.98;;;24.60;89.10;;;;;;5074273;28;20063;-82
2023/09/09 07:50:13;;;;;;;53.50;32.45;;;24.50;89.00;;;;;;5056074;28;20036;-82
2023/09/09 07:52:39;;;;;;;43.42;33.17;;;24.50;89.10;;;;;;5074485;28;20035;-82
2023/09/09 07:55:06;;;;;;;36.28;27.23;;;24.40;89.20;;;;;;5073608;28;20063;-82
2023/09/09 07:57:31;;;;;;;32.75;24.52;;;24.40;89.20;;;;;;5056034;28;20046;-83
2023/09/09 07:59:57;;;;;;;47.80;36.47;;;24.40;89.50;;;;;;5072559;28;20465;-82
2023/09/09 08:02:22;;;;;;;33.70;26.02;;;24.40;89.80;;;;;;5072424;28;20084;-83
2023/09/09 08:04:49;;;;;;;34.10;28.05;;;24.30;90.00;;;;;;5073799;28;20032;-82
2023/09/09 08:07:14;;;;;;;34.90;27.52;;;24.40;90.10;;;;;;5073785;28;20020;-82
2023/09/09 08:09:40;;;;;;;28.90;25.33;;;24.40;90.10;;;;;;5072253;28;20540;-82
2023/09/09 08:12:06;;;;;;;35.92;30.67;;;24.40;90.20;;;;;;5073536;28;20036;-82
2023/09/09 08:14:32;;;;;;;26.00;21.98;;;24.40;90.30;;;;;;5072303;28;20457;-82
2023/09/09 08:16:57;;;;;;;32.88;27.08;;;24.40;90.30;;;;;;5074415;28;20366;-82
2023/09/09 08:19:23;;;;;;;21.17;18.10;;;24.50;90.30;;;;;;5073747;28;20029;-82
2023/09/09 08:21:49;;;;;;;38.45;33.67;;;24.60;90.30;;;;;;5055559;28;20397;-82
2023/09/09 08:24:14;;;;;;;41.08;32.05;;;24.60;90.30;;;;;;5073789;28;20055;-83
2023/09/09 08:26:40;;;;;;;33.55;27.63;;;24.70;90.40;;;;;;5073841;28;20052;-82
2023/09/09 08:29:06;;;;;;;39.58;33.78;;;24.70;90.40;;;;;;5073724;28;20487;-83
2023/09/09 08:31:31;;;;;;;40.35;31.90;;;24.80;90.40;;;;;;5073746;28;20036;-83
2023/09/09 08:33:57;;;;;;;32.95;29.23;;;24.80;90.30;;;;;;5073525;28;20028;-82
2023/09/09 08:36:23;;;;;;;27.27;24.30;;;24.90;90.60;;;;;;5072960;28;20025;-82
2023/09/09 08:38:49;;;;;;;28.20;25.20;;;24.80;90.40;;;;;;5073793;28;20583;-82
2023/09/09 08:41:42;;;;;;;37.15;31.48;;;24.80;90.40;;;;;;5073468;28;20037;-82
2023/09/09 08:44:07;;;;;;;48.25;41.67;;;24.90;90.40;;;;;;5054338;28;20036;-83
2023/09/09 08:46:33;;;;;;;40.53;35.95;;;24.90;91.00;;;;;;5073304;28;20043;-83
2023/09/09 08:49:00;;;;;;;51.80;44.13;;;24.90;91.10;;;;;;5073749;28;20090;-82
2023/09/09 08:51:34;;;;;;;46.55;39.03;;;24.90;91.80;;;;;;5073307;28;20051;-82
2023/09/09 08:54:00;;;;;;;39.83;34.97;;;24.90;91.90;;;;;;5073617;28;20028;-83
2023/09/09 08:56:27;;;;;;;37.30;32.00;;;25.00;91.90;;;;;;5073079;28;20111;-83
2023/09/09 08:58:53;;;;;;;35.05;27.83;;;25.10;91.90;;;;;;5072967;28;20040;-82
2023/09/09 09:01:19;;;;;;;41.97;36.22;;;25.40;91.50;;;;;;5073012;28;20060;-83
2023/09/09 09:03:45;;;;;;;29.05;25.42;;;25.50;91.30;;;;;;5073064;28;20028;-83
2023/09/09 09:06:11;;;;;;;33.97;29.73;;;25.60;91.00;;;;;;5071835;28;20036;-82
2023/09/09 09:08:37;;;;;;;55.58;46.03;;;25.80;90.90;;;;;;5072697;28;20029;-84
2023/09/09 09:11:04;;;;;;;45.47;37.35;;;25.90;90.90;;;;;;5073103;28;20433;-83
2023/09/09 09:13:33;;;;;;;52.42;43.92;;;25.90;90.90;;;;;;5072964;28;20032;-84
2023/09/09 09:16:00;;;;;;;55.47;46.65;;;26.00;90.70;;;;;;5076370;28;20146;-84
2023/09/09 09:18:26;;;;;;;47.80;40.53;;;26.10;90.60;;;;;;5076729;28;20516;-81
2023/09/09 09:20:53;;;;;;;38.90;32.17;;;26.20;90.50;;;;;;5076791;28;20111;-83
2023/09/09 09:23:18;;;;;;;48.92;39.45;;;26.40;90.50;;;;;;5076827;28;20032;-84
2023/09/09 09:25:46;;;;;;;56.20;45.97;;;26.50;90.30;;;;;;5076449;28;20032;-83
2023/09/09 09:28:15;;;;;;;59.90;47.03;;;26.50;90.50;;;;;;5077033;28;20032;-83
2023/09/09 09:30:42;;;;;;;50.53;40.75;;;26.50;90.20;;;;;;5059235;28;20360;-84
2023/09/09 09:33:08;;;;;;;55.13;43.20;;;26.60;90.20;;;;;;5077070;28;20021;-84
2023/09/09 09:35:36;;;;;;;43.50;36.30;;;26.70;90.00;;;;;;5076814;28;20407;-83
2023/09/09 09:38:07;;;;;;;42.20;34.90;;;26.80;90.00;;;;;;5076466;28;20063;-84
2023/09/09 09:40:35;;;;;;;30.77;23.70;;;26.90;89.70;;;;;;5076578;28;20032;-83
2023/09/09 09:43:01;;;;;;;49.35;40.42;;;27.00;89.20;;;;;;5076643;28;20056;-83
2023/09/09 09:45:28;;;;;;;49.47;41.17;;;27.30;89.30;;;;;;5076032;28;20052;-83
2023/09/09 09:47:54;;;;;;;29.17;24.65;;;27.40;89.30;;;;;;5076428;28;20035;-83
2023/09/09 09:50:32;;;;;;;44.75;35.75;;;27.50;88.40;;;;;;5076592;28;20060;-84
2023/09/09 09:53:02;;;;;;;52.58;41.60;;;27.60;88.10;;;;;;5058261;28;20055;-83
2023/09/09 09:55:29;;;;;;;37.65;31.15;;;27.70;88.10;;;;;;5075853;28;20051;-83
2023/09/09 09:57:57;;;;;;;36.25;30.40;;;27.70;87.80;;;;;;5076416;28;20028;-84
2023/09/09 10:00:24;;;;;;;29.27;24.00;;;27.80;87.50;;;;;;5075816;28;20064;-83
2023/09/09 10:02:55;;;;;;;34.42;27.25;;;27.90;87.20;;;;;;5075890;28;20037;-84
2023/09/09 10:05:23;;;;;;;31.05;25.33;;;28.10;86.80;;;;;;5076252;28;20078;-83
2023/09/09 10:08:08;;;;;;;27.48;23.52;;;28.20;86.40;;;;;;5075944;28;20032;-83
2023/09/09 10:10:36;;;;;;;17.30;15.30;;;28.20;85.90;;;;;;5076190;28;20060;-83
2023/09/09 10:13:08;;;;;;;23.30;20.77;;;28.30;85.70;;;;;;5075945;28;20052;-83
2023/09/09 10:15:35;;;;;;;32.33;25.90;;;28.50;86.30;;;;;;5075829;28;20028;-83
2023/09/09 10:18:03;;;;;;;30.83;24.92;;;28.60;85.40;;;;;;5075833;28;20033;-83
2023/09/09 10:20:29;;;;;;;29.05;23.65;;;28.70;84.70;;;;;;5075593;28;20032;-83
2023/09/09 10:22:59;;;;;;;20.75;18.35;;;28.80;84.80;;;;;;5075925;28;20039;-83
2023/09/09 10:25:32;;;;;;;22.27;19.25;;;28.90;84.30;;;;;;5075804;28;20033;-85
2023/09/09 10:27:57;;;;;;;26.45;22.65;;;29.00;84.00;;;;;;5057837;28;20028;-85
2023/09/09 10:30:24;;;;;;;24.90;22.15;;;29.00;83.60;;;;;;5076615;28;20037;-84
2023/09/09 10:32:50;;;;;;;23.52;19.58;;;29.00;82.70;;;;;;5075383;28;20048;-85
2023/09/09 10:35:18;;;;;;;17.63;15.63;;;29.00;82.40;;;;;;5077397;28;20032;-84
2023/09/09 10:37:46;;;;;;;28.55;24.73;;;29.10;82.40;;;;;;5059010;28;20076;-81
2023/09/09 10:40:13;;;;;;;27.30;23.95;;;29.20;82.60;;;;;;5076480;28;20174;-84
2023/09/09 10:42:41;;;;;;;26.52;22.60;;;29.20;81.80;;;;;;5075862;28;20087;-84
2023/09/09 10:45:41;;;;;;;21.65;19.30;;;29.30;81.50;;;;;;5075215;28;20024;-85
2023/09/09 10:48:07;;;;;;;22.83;20.35;;;29.30;81.80;;;;;;5075231;28;20017;-82
2023/09/09 10:50:50;;;;;;;21.70;19.40;;;29.40;81.50;;;;;;5075741;28;20044;-84
2023/09/09 10:53:28;;;;;;;18.08;15.88;;;29.50;81.00;;;;;;5075063;28;20029;-85
2023/09/09 10:55:59;;;;;;;13.75;12.35;;;29.50;80.70;;;;;;5075388;28;20064;-85
2023/09/09 10:58:38;;;;;;;13.55;12.10;;;29.50;80.50;;;;;;5075698;28;20093;-85
2023/09/09 11:01:07;;;;;;;18.80;14.68;;;29.70;80.90;;;;;;5075433;28;20107;-85
2023/09/09 11:03:45;;;;;;;13.60;11.38;;;29.90;80.50;;;;;;5056906;28;20032;-85
2023/09/09 11:06:25;;;;;;;18.23;13.70;;;30.00;79.90;;;;;;5074214;28;20058;-85
2023/09/09 11:08:56;;;;;;;12.20;10.07;;;30.10;79.20;;;;;;5074705;28;20373;-85
2023/09/09 11:11:27;;;;;;;11.25;8.10;;;30.20;78.60;;;;;;5074464;28;20025;-85
2023/09/09 11:14:03;;;;;;;14.10;9.20;;;30.30;78.00;;;;;;5074811;28;20028;-85
2023/09/09 11:16:39;;;;;;;9.63;7.68;;;30.40;76.20;;;;;;5074891;28;20025;-84
2023/09/09 11:19:12;;;;;;;8.18;5.45;;;30.40;73.80;;;;;;5074561;28;20035;-85
2023/09/09 11:21:41;;;;;;;8.90;7.93;;;30.40;72.70;;;;;;5074718;28;20469;-86
2023/09/09 11:24:07;;;;;;;7.32;6.32;;;30.30;73.40;;;;;;5074456;28;20118;-85
2023/09/09 11:26:37;;;;;;;9.15;8.23;;;30.40;74.90;;;;;;5074722;28;20039;-85
2023/09/09 11:29:04;;;;;;;13.70;11.80;;;30.50;76.80;;;;;;5074617;28;20024;-84
2023/09/09 11:31:30;;;;;;;10.52;9.25;;;30.60;76.40;;;;;;5056362;28;20032;-85
2023/09/09 11:33:57;;;;;;;7.05;6.35;;;30.70;75.40;;;;;;5056535;28;20033;-85
2023/09/09 11:36:23;;;;;;;7.32;6.55;;;30.80;75.00;;;;;;5073818;28;20047;-84
2023/09/09 11:38:48;;;;;;;13.23;9.73;;;30.90;74.60;;;;;;5073595;28;20048;-83
2023/09/09 11:41:19;;;;;;;10.48;8.60;;;30.90;73.70;;;;;;5074241;28;20032;-82
2023/09/09 11:43:55;;;;;;;8.35;5.55;;;30.90;73.40;;;;;;5056587;28;20078;-83
2023/09/09 11:46:20;;;;;;;6.47;5.72;;;31.00;73.50;;;;;;5056278;28;20027;-83
2023/09/09 11:48:46;;;;;;;5.28;4.85;;;31.20;73.40;;;;;;5074252;28;20448;-83
2023/09/09 11:51:12;;;;;;;7.35;5.50;;;31.30;72.20;;;;;;5073991;28;20036;-84
2023/09/09 11:53:38;;;;;;;4.38;4.07;;;31.30;71.60;;;;;;5073925;28;20090;-84
2023/09/09 11:56:04;;;;;;;4.57;4.07;;;31.50;71.10;;;;;;5055820;28;20062;-83
2023/09/09 11:58:40;;;;;;;7.90;4.40;;;31.50;71.10;;;;;;5074087;28;20037;-84
2023/09/09 12:01:06;;;;;;;5.55;3.72;;;31.60;71.00;;;;;;5074024;28;20114;-83
2023/09/09 12:03:31;;;;;;;6.68;4.03;;;31.70;68.30;;;;;;5073655;28;20461;-84
2023/09/09 12:05:58;;;;;;;3.45;3.15;;;31.70;68.30;;;;;;5073758;28;20536;-82
2023/09/09 12:08:25;;;;;;;6.50;3.78;;;31.70;68.80;;;;;;5073927;28;20380;-83
2023/09/09 12:10:55;;;;;;;3.45;3.00;;;31.70;67.80;;;;;;5071988;28;20040;-83
2023/09/09 12:13:21;;;;;;;4.30;3.35;;;31.80;67.80;;;;;;5060577;28;20032;-83
2023/09/09 12:15:48;;;;;;;2.80;2.53;;;32.00;67.40;;;;;;5073815;28;20165;-83
2023/09/09 12:18:14;;;;;;;3.80;2.88;;;32.00;63.30;;;;;;5073770;28;20029;-83
2023/09/09 12:20:59;;;;;;;4.15;2.88;;;32.10;62.40;;;;;;5073056;28;20055;-83
2023/09/09 12:23:27;;;;;;;7.45;2.97;;;32.10;63.80;;;;;;5073943;28;20039;-84
2023/09/09 12:25:53;;;;;;;4.00;2.90;;;32.20;60.00;;;;;;5072214;28;20117;-84
2023/09/09 12:28:19;;;;;;;3.92;3.00;;;32.30;62.60;;;;;;5073076;28;20079;-83
2023/09/09 12:30:45;;;;;;;4.88;3.25;;;32.40;63.20;;;;;;5073386;28;20037;-84
2023/09/09 12:33:12;;;;;;;3.25;2.95;;;32.40;60.60;;;;;;5073352;28;20033;-84
2023/09/09 12:35:45;;;;;;;4.38;3.65;;;32.40;61.50;;;;;;5072965;28;20082;-83
2023/09/09 12:38:11;;;;;;;3.90;3.33;;;32.40;60.10;;;;;;5071670;28;20412;-83
2023/09/09 12:40:53;;;;;;;3.17;2.88;;;32.50;58.70;;;;;;5073062;28;20036;-84